createdAt,value
2023-05-17T00:02:06.557Z,9.47
2023-05-17T00:04:33.266Z,9.46
2023-05-17T00:06:59.960Z,9.43
2023-05-17T00:09:28.114Z,9.40
2023-05-17T00:11:54.677Z,9.36
2023-05-17T00:14:21.366Z,9.35
2023-05-17T00:16:47.933Z,9.30
2023-05-17T00:19:14.864Z,9.34
2023-05-17T00:21:41.537Z,9.31
2023-05-17T00:24:08.248Z,9.29
2023-05-17T00:26:36.206Z,9.24
2023-05-17T00:29:02.877Z,9.22
2023-05-17T00:31:29.588Z,9.19
2023-05-17T00:33:56.334Z,9.18
2023-05-17T00:36:22.981Z,9.18
2023-05-17T00:38:49.570Z,9.13
2023-05-17T00:41:16.212Z,9.14
2023-05-17T00:43:44.162Z,9.10
2023-05-17T00:46:10.841Z,9.07
2023-05-17T00:48:37.785Z,8.99
2023-05-17T00:51:05.294Z,9.03
2023-05-17T00:53:31.992Z,9.00
2023-05-17T00:55:58.800Z,8.87
2023-05-17T00:58:26.488Z,8.89
2023-05-17T01:00:54.824Z,8.89
2023-05-17T01:03:21.670Z,8.85
2023-05-17T01:05:48.733Z,8.82
2023-05-17T01:08:15.357Z,8.80
2023-05-17T01:10:49.965Z,8.77
2023-05-17T01:13:22.687Z,8.77
2023-05-17T01:16:07.405Z,8.75
2023-05-17T01:18:39.649Z,8.75
2023-05-17T01:21:17.559Z,8.72
2023-05-17T01:23:55.000Z,8.70
2023-05-17T01:26:35.995Z,8.65
2023-05-17T01:29:03.394Z,8.71
2023-05-17T01:31:30.234Z,8.64
2023-05-17T01:33:58.089Z,8.57
2023-05-17T01:36:24.736Z,8.56
2023-05-17T01:38:51.355Z,8.52
2023-05-17T01:41:24.920Z,8.49
2023-05-17T01:43:59.298Z,8.51
2023-05-17T01:46:31.901Z,8.40
2023-05-17T01:49:08.966Z,8.42
2023-05-17T01:51:45.968Z,8.43
2023-05-17T01:54:13.778Z,8.37
2023-05-17T01:56:44.014Z,8.37
2023-05-17T01:59:18.231Z,8.36
2023-05-17T02:01:45.979Z,8.34
2023-05-17T02:04:13.300Z,8.30
2023-05-17T02:06:40.020Z,8.35
2023-05-17T02:09:06.660Z,8.31
2023-05-17T02:11:33.230Z,8.27
2023-05-17T02:13:59.826Z,8.22
2023-05-17T02:16:27.892Z,8.21
2023-05-17T02:18:55.101Z,8.18
2023-05-17T02:21:21.818Z,8.17
2023-05-17T02:23:48.440Z,8.07
2023-05-17T02:26:15.006Z,8.09
2023-05-17T02:28:41.672Z,7.99
2023-05-17T02:31:08.681Z,7.89
2023-05-17T02:33:36.831Z,7.91
2023-05-17T02:36:04.214Z,7.94
2023-05-17T02:38:30.870Z,7.84
2023-05-17T02:40:57.491Z,7.77
2023-05-17T02:43:24.252Z,7.85
2023-05-17T02:45:50.908Z,7.85
2023-05-17T02:48:17.569Z,7.86
2023-05-17T02:50:45.625Z,7.81
2023-05-17T02:53:12.319Z,7.83
2023-05-17T02:55:39.026Z,7.86
2023-05-17T02:58:05.662Z,7.73
2023-05-17T03:00:33.174Z,7.78
2023-05-17T03:02:59.954Z,7.79
2023-05-17T03:05:26.790Z,7.75
2023-05-17T03:07:54.892Z,7.70
2023-05-17T03:10:22.304Z,7.69
2023-05-17T03:12:48.973Z,7.64
2023-05-17T03:15:18.453Z,7.61
2023-05-17T03:17:45.626Z,7.59
2023-05-17T03:20:12.761Z,7.48
2023-05-17T03:22:39.386Z,7.49
2023-05-17T03:25:08.251Z,7.57
2023-05-17T03:27:36.208Z,7.56
2023-05-17T03:30:03.065Z,7.65
2023-05-17T03:32:30.880Z,7.75
2023-05-17T03:34:57.971Z,7.84
2023-05-17T03:37:25.463Z,7.93
2023-05-17T03:39:52.057Z,8.00
2023-05-17T03:42:20.328Z,8.05
2023-05-17T03:44:47.802Z,8.10
2023-05-17T03:47:14.743Z,8.13
2023-05-17T03:49:41.374Z,8.27
2023-05-17T03:52:07.936Z,8.32
2023-05-17T03:54:34.644Z,8.35
2023-05-17T03:57:01.294Z,8.41
2023-05-17T03:59:29.304Z,8.49
2023-05-17T04:01:56.092Z,8.45
2023-05-17T04:04:23.288Z,8.55
2023-05-17T04:06:50.091Z,8.56
2023-05-17T04:09:16.727Z,8.65
2023-05-17T04:11:43.386Z,8.66
2023-05-17T04:14:11.045Z,8.63
2023-05-17T04:16:39.021Z,8.75
2023-05-17T04:19:05.840Z,8.75
2023-05-17T04:21:32.582Z,8.80
2023-05-17T04:23:59.222Z,8.81
2023-05-17T04:26:26.443Z,8.89
2023-05-17T04:28:53.143Z,8.93
2023-05-17T04:31:19.849Z,8.84
2023-05-17T04:33:47.880Z,8.93
2023-05-17T04:36:15.206Z,8.98
2023-05-17T04:38:42.441Z,8.93
2023-05-17T04:41:12.016Z,9.05
2023-05-17T04:43:39.733Z,9.07
2023-05-17T04:46:11.171Z,9.11
2023-05-17T04:48:38.302Z,9.11
2023-05-17T04:51:06.471Z,9.11
2023-05-17T04:53:33.139Z,9.08
2023-05-17T04:56:05.528Z,9.07
2023-05-17T04:58:32.317Z,9.00
2023-05-17T05:01:01.606Z,9.02
2023-05-17T05:03:28.332Z,8.98
2023-05-17T05:05:55.529Z,8.98
2023-05-17T05:08:24.156Z,9.01
2023-05-17T05:10:52.404Z,8.93
2023-05-17T05:13:21.676Z,8.99
2023-05-17T05:15:48.438Z,9.02
2023-05-17T05:18:15.186Z,9.10
2023-05-17T05:20:43.462Z,9.20
2023-05-17T05:23:10.832Z,9.34
2023-05-17T05:25:41.836Z,9.45
2023-05-17T05:28:08.444Z,9.52
2023-05-17T05:30:37.982Z,9.58
2023-05-17T05:33:05.356Z,9.61
2023-05-17T05:35:32.162Z,9.70
2023-05-17T05:37:59.523Z,9.85
2023-05-17T05:40:26.550Z,10.07
2023-05-17T05:42:54.672Z,10.20
2023-05-17T05:45:21.392Z,10.30
2023-05-17T05:47:48.978Z,10.37
2023-05-17T05:50:15.654Z,10.47
2023-05-17T05:52:44.220Z,10.57
2023-05-17T05:55:11.235Z,10.64
2023-05-17T05:57:37.800Z,10.76
2023-05-17T06:00:07.965Z,10.76
2023-05-17T06:02:39.497Z,10.72
2023-05-17T06:05:06.759Z,10.62
2023-05-17T06:07:33.403Z,10.58
2023-05-17T06:10:01.036Z,10.59
2023-05-17T06:12:27.587Z,10.52
2023-05-17T06:14:54.267Z,10.52
2023-05-17T06:17:22.326Z,10.52
2023-05-17T06:19:48.972Z,10.57
2023-05-17T06:22:15.728Z,10.61
2023-05-17T06:24:42.619Z,10.73
2023-05-17T06:27:09.895Z,10.80
2023-05-17T06:29:36.512Z,10.80
2023-05-17T06:32:05.007Z,10.81
2023-05-17T06:34:36.105Z,10.91
2023-05-17T06:37:02.862Z,11.08
2023-05-17T06:39:29.458Z,11.32
2023-05-17T06:41:56.112Z,11.57
2023-05-17T06:44:22.736Z,11.71
2023-05-17T06:46:49.369Z,11.67
2023-05-17T06:49:16.964Z,11.58
2023-05-17T06:51:44.982Z,11.52
2023-05-17T06:54:11.582Z,11.44
2023-05-17T06:56:38.181Z,11.39
2023-05-17T06:59:07.724Z,11.43
2023-05-17T07:01:34.319Z,11.56
2023-05-17T07:04:01.086Z,11.77
2023-05-17T07:06:27.829Z,11.89
2023-05-17T07:08:58.770Z,12.09
2023-05-17T07:11:25.546Z,12.17
2023-05-17T07:13:54.209Z,12.25
2023-05-17T07:16:21.057Z,12.42
2023-05-17T07:18:47.762Z,12.66
2023-05-17T07:21:14.433Z,12.75
2023-05-17T07:23:41.457Z,12.92
2023-05-17T07:26:09.475Z,13.11
2023-05-17T07:28:36.105Z,13.12
2023-05-17T07:31:02.763Z,13.06
2023-05-17T07:33:29.347Z,13.11
2023-05-17T07:35:56.055Z,13.08
2023-05-17T07:38:22.692Z,13.04
2023-05-17T07:40:49.399Z,12.90
2023-05-17T07:43:17.355Z,12.75
2023-05-17T07:45:44.318Z,12.55
2023-05-17T07:48:11.045Z,12.44
2023-05-17T07:50:37.831Z,12.43
2023-05-17T07:53:04.468Z,12.51
2023-05-17T07:55:31.301Z,12.52
2023-05-17T07:57:57.983Z,12.56
2023-05-17T08:00:26.487Z,12.73
2023-05-17T08:02:53.138Z,12.74
2023-05-17T08:05:19.857Z,12.76
2023-05-17T08:07:46.465Z,12.76
2023-05-17T08:10:13.172Z,12.69
2023-05-17T08:12:39.924Z,12.74
2023-05-17T08:15:07.277Z,13.03
2023-05-17T08:17:35.308Z,13.05
2023-05-17T08:20:01.960Z,13.08
2023-05-17T08:22:28.623Z,13.11
2023-05-17T08:24:55.259Z,13.17
2023-05-17T08:27:21.861Z,13.38
2023-05-17T08:29:48.470Z,13.75
2023-05-17T08:32:15.097Z,14.01
2023-05-17T08:34:43.060Z,14.36
2023-05-17T08:37:09.764Z,14.56
2023-05-17T08:39:36.447Z,14.43
2023-05-17T08:42:07.467Z,14.15
2023-05-17T08:44:34.331Z,14.39
2023-05-17T08:47:03.103Z,14.30
2023-05-17T08:49:31.056Z,14.72
2023-05-17T08:52:00.297Z,16.09
2023-05-17T08:54:27.063Z,16.50
2023-05-17T08:56:58.352Z,19.34
2023-05-17T08:59:26.297Z,21.43
2023-05-17T09:01:53.848Z,22.88
2023-05-17T09:04:21.121Z,23.91
2023-05-17T09:06:47.733Z,23.58
2023-05-17T09:09:15.892Z,24.80
2023-05-17T09:11:42.516Z,24.50
2023-05-17T09:14:09.177Z,25.42
2023-05-17T09:16:37.730Z,25.57
2023-05-17T09:19:05.819Z,25.94
2023-05-17T09:21:33.198Z,26.73
2023-05-17T09:26:39.404Z,28.72
2023-05-17T09:29:08.739Z,28.31
2023-05-17T09:31:35.526Z,26.52
2023-05-17T09:34:02.307Z,24.42
2023-05-17T09:36:29.088Z,21.65
2023-05-17T09:38:56.609Z,19.42
2023-05-17T09:41:26.350Z,17.85
2023-05-17T09:43:58.081Z,16.99
2023-05-17T09:46:24.738Z,16.77
2023-05-17T09:48:54.100Z,17.59
2023-05-17T09:51:31.579Z,19.85
2023-05-17T09:53:59.011Z,21.77
2023-05-17T09:56:28.331Z,21.06
2023-05-17T09:58:56.684Z,23.16
2023-05-17T10:01:26.644Z,22.59
2023-05-17T10:03:54.477Z,24.13
2023-05-17T10:06:38.498Z,24.08
2023-05-17T10:09:12.581Z,24.26
2023-05-17T10:11:41.149Z,24.60
2023-05-17T10:14:13.120Z,25.90
2023-05-17T10:16:39.806Z,28.79
2023-05-17T10:19:07.204Z,27.73
2023-05-17T10:21:34.434Z,28.24
2023-05-17T10:24:02.630Z,28.93
2023-05-17T10:26:29.753Z,29.42
2023-05-17T10:28:58.552Z,27.76
2023-05-17T10:31:29.113Z,25.70
2023-05-17T10:33:56.083Z,23.42
2023-05-17T10:36:24.871Z,22.42
2023-05-17T10:38:52.343Z,23.64
2023-05-17T10:41:21.215Z,25.66
2023-05-17T10:43:48.488Z,26.68
2023-05-17T10:46:16.562Z,27.38
2023-05-17T10:48:47.607Z,27.61
2023-05-17T10:51:14.237Z,28.24
2023-05-17T10:54:07.602Z,29.96
2023-05-17T10:56:34.846Z,29.79
2023-05-17T10:59:15.055Z,28.20
2023-05-17T11:01:52.303Z,25.68
2023-05-17T11:04:27.299Z,23.62
2023-05-17T11:07:15.232Z,21.88
2023-05-17T11:09:43.553Z,20.75
2023-05-17T11:12:11.976Z,20.53
2023-05-17T11:14:51.681Z,22.18
2023-05-17T11:17:20.366Z,23.61
2023-05-17T11:19:55.591Z,25.31
2023-05-17T11:22:23.053Z,25.25
2023-05-17T11:24:53.024Z,24.26
2023-05-17T11:27:20.470Z,22.67
2023-05-17T11:29:47.201Z,22.29
2023-05-17T11:32:13.903Z,23.36
2023-05-17T11:34:40.700Z,24.36
2023-05-17T11:37:10.936Z,25.46
2023-05-17T11:39:37.609Z,26.42
2023-05-17T11:42:05.812Z,27.15
2023-05-17T11:44:34.142Z,27.06
2023-05-17T11:47:02.193Z,25.76
2023-05-17T11:49:35.960Z,24.57
2023-05-17T11:52:03.548Z,22.83
2023-05-17T11:54:31.551Z,22.92
2023-05-17T11:56:59.364Z,24.06
2023-05-17T11:59:27.324Z,24.54
2023-05-17T12:01:54.052Z,24.93
2023-05-17T12:04:24.939Z,23.99
2023-05-17T12:06:52.300Z,23.03
2023-05-17T12:09:19.161Z,23.39
2023-05-17T12:11:45.872Z,24.99
2023-05-17T12:14:15.515Z,26.12
2023-05-17T12:16:44.584Z,24.80
2023-05-17T12:19:17.578Z,22.91
2023-05-17T12:21:44.317Z,22.93
2023-05-17T12:24:11.031Z,24.17
2023-05-17T12:26:42.939Z,25.49
2023-05-17T12:29:11.938Z,26.68
2023-05-17T12:31:41.600Z,27.37
2023-05-17T12:34:10.816Z,27.51
2023-05-17T12:36:37.696Z,28.14
2023-05-17T12:39:04.850Z,28.22
2023-05-17T12:41:32.287Z,27.89
2023-05-17T12:44:13.926Z,27.78
2023-05-17T12:46:41.736Z,27.63
2023-05-17T12:49:10.940Z,26.84
2023-05-17T12:51:42.044Z,27.40
2023-05-17T12:54:08.693Z,27.88
2023-05-17T12:56:35.247Z,28.59
2023-05-17T12:59:06.862Z,28.52
2023-05-17T13:01:34.267Z,29.49
2023-05-17T13:04:01.217Z,27.55
2023-05-17T13:06:29.447Z,27.90
2023-05-17T13:08:59.528Z,28.00
2023-05-17T13:11:26.796Z,28.17
2023-05-17T13:13:53.437Z,28.82
2023-05-17T13:16:28.416Z,28.78
2023-05-17T13:18:55.346Z,27.72
2023-05-17T13:21:22.186Z,27.35
2023-05-17T13:23:50.490Z,25.30
2023-05-17T13:26:18.057Z,23.94
2023-05-17T13:28:45.191Z,23.68
2023-05-17T13:31:11.820Z,24.34
2023-05-17T13:33:38.673Z,25.00
2023-05-17T13:36:05.854Z,24.65
2023-05-17T13:38:32.494Z,24.49
2023-05-17T13:41:00.463Z,23.77
2023-05-17T13:43:27.044Z,23.16
2023-05-17T13:45:53.643Z,23.38
2023-05-17T13:48:20.641Z,23.17
2023-05-17T13:50:47.441Z,23.00
2023-05-17T13:53:14.020Z,22.90
2023-05-17T13:55:40.697Z,22.69
2023-05-17T13:58:08.671Z,22.45
2023-05-17T14:00:35.255Z,22.16
2023-05-17T14:03:02.084Z,21.93
2023-05-17T14:05:29.039Z,22.27
2023-05-17T14:07:55.707Z,21.98
2023-05-17T14:10:22.338Z,21.84
2023-05-17T14:12:48.984Z,21.79
2023-05-17T14:15:16.928Z,21.69
2023-05-17T14:17:43.711Z,21.63
2023-05-17T14:20:11.442Z,21.36
2023-05-17T14:22:38.226Z,21.21
2023-05-17T14:25:05.611Z,20.89
2023-05-17T14:27:32.221Z,20.93
2023-05-17T14:29:58.809Z,20.86
2023-05-17T14:32:27.085Z,20.63
2023-05-17T14:34:53.770Z,20.75
2023-05-17T14:37:20.347Z,20.92
2023-05-17T14:39:58.417Z,21.04
2023-05-17T14:42:32.339Z,21.14
2023-05-17T14:44:59.238Z,21.08
2023-05-17T14:47:27.224Z,21.16
2023-05-17T14:49:53.859Z,21.08
2023-05-17T14:52:20.466Z,20.82
2023-05-17T14:54:47.122Z,20.33
2023-05-17T14:57:13.712Z,19.96
2023-05-17T14:59:40.327Z,19.81
2023-05-17T15:02:06.986Z,19.65
2023-05-17T15:04:35.029Z,19.73
2023-05-17T15:07:01.683Z,19.88
2023-05-17T15:09:28.550Z,20.04
2023-05-17T15:11:55.129Z,20.23
2023-05-17T15:14:21.836Z,20.21
2023-05-17T15:16:48.675Z,20.20
2023-05-17T15:19:15.621Z,19.87
2023-05-17T15:21:44.397Z,19.57
2023-05-17T15:24:13.576Z,19.20
2023-05-17T15:26:41.016Z,18.90
2023-05-17T15:29:07.594Z,18.84
2023-05-17T15:31:34.179Z,18.87
2023-05-17T15:34:00.808Z,18.81
2023-05-17T15:36:27.536Z,18.80
2023-05-17T15:38:55.553Z,18.89
2023-05-17T15:41:22.192Z,18.86
2023-05-17T15:43:48.829Z,19.00
2023-05-17T15:46:15.521Z,19.05
2023-05-17T15:48:42.234Z,19.00
2023-05-17T15:51:08.988Z,18.89
2023-05-17T15:53:35.590Z,18.87
2023-05-17T15:56:03.825Z,18.90
2023-05-17T15:58:30.505Z,18.75
2023-05-17T16:00:57.097Z,18.83
2023-05-17T16:03:23.738Z,18.69
2023-05-17T16:05:50.415Z,18.41
2023-05-17T16:08:17.064Z,18.31
2023-05-17T16:10:44.627Z,18.30
2023-05-17T16:13:12.618Z,18.32
2023-05-17T16:15:39.180Z,18.26
2023-05-17T16:18:05.941Z,18.33
2023-05-17T16:20:32.691Z,18.37
2023-05-17T16:22:59.306Z,18.37
2023-05-17T16:25:25.939Z,18.32
2023-05-17T16:27:52.532Z,18.32
2023-05-17T16:30:20.476Z,18.12
2023-05-17T16:32:47.276Z,17.96
2023-05-17T16:35:14.392Z,17.86
2023-05-17T16:37:41.014Z,17.68
2023-05-17T16:40:09.382Z,17.69
2023-05-17T16:42:36.519Z,17.69
2023-05-17T16:45:04.900Z,17.76
2023-05-17T16:47:34.489Z,17.75
2023-05-17T16:50:01.136Z,17.68
2023-05-17T16:52:27.754Z,17.70
2023-05-17T16:54:54.367Z,17.71
2023-05-17T16:57:20.950Z,17.72
2023-05-17T16:59:47.549Z,17.70
2023-05-17T17:02:14.204Z,17.74
2023-05-17T17:04:42.166Z,17.60
2023-05-17T17:07:08.733Z,17.58
2023-05-17T17:09:35.318Z,17.48
2023-05-17T17:12:09.513Z,17.40
2023-05-17T17:14:43.117Z,17.30
2023-05-17T17:17:09.796Z,17.24
2023-05-17T17:19:36.394Z,17.13
2023-05-17T17:22:04.732Z,17.07
2023-05-17T17:24:32.991Z,16.98
2023-05-17T17:26:59.589Z,16.94
2023-05-17T17:29:26.230Z,16.82
2023-05-17T17:31:55.119Z,16.77
2023-05-17T17:34:21.764Z,16.74
2023-05-17T17:36:48.386Z,16.69
2023-05-17T17:39:16.329Z,16.70
2023-05-17T17:41:43.030Z,16.68
2023-05-17T17:44:09.682Z,16.53
2023-05-17T17:46:36.360Z,16.52
2023-05-17T17:49:03.353Z,16.38
2023-05-17T17:51:29.967Z,16.38
2023-05-17T17:53:56.632Z,16.27
2023-05-17T17:56:24.623Z,16.29
2023-05-17T17:58:51.292Z,16.20
2023-05-17T18:01:17.982Z,16.19
2023-05-17T18:03:44.628Z,16.10
2023-05-17T18:06:11.234Z,16.07
2023-05-17T18:08:37.855Z,15.97
2023-05-17T18:11:04.545Z,15.90
2023-05-17T18:13:32.514Z,15.81
2023-05-17T18:15:59.108Z,15.71
2023-05-17T18:18:25.682Z,15.63
2023-05-17T18:20:52.379Z,15.56
2023-05-17T18:23:18.982Z,15.49
2023-05-17T18:25:45.549Z,15.46
2023-05-17T18:28:12.232Z,15.36
2023-05-17T18:30:41.126Z,15.33
2023-05-17T18:33:07.777Z,15.20
2023-05-17T18:35:34.671Z,15.17
2023-05-17T18:38:01.345Z,15.13
2023-05-17T18:40:28.231Z,15.09
2023-05-17T18:42:54.992Z,14.90
2023-05-17T18:45:21.867Z,14.86
2023-05-17T18:47:49.838Z,14.83
2023-05-17T18:50:16.598Z,14.74
2023-05-17T18:52:43.170Z,14.71
2023-05-17T18:55:09.976Z,14.59
2023-05-17T18:57:36.560Z,14.48
2023-05-17T19:00:03.727Z,14.50
2023-05-17T19:02:30.463Z,14.46
2023-05-17T19:04:58.459Z,14.33
2023-05-17T19:07:25.150Z,14.28
2023-05-17T19:09:51.702Z,14.23
2023-05-17T19:12:18.251Z,14.20
2023-05-17T19:14:44.904Z,14.10
2023-05-17T19:17:11.556Z,14.08
2023-05-17T19:19:38.163Z,13.97
2023-05-17T19:22:06.186Z,13.90
2023-05-17T19:24:32.856Z,13.87
2023-05-17T19:26:59.492Z,13.81
2023-05-17T19:29:26.065Z,13.70
2023-05-17T19:31:52.757Z,13.52
2023-05-17T19:34:19.490Z,13.46
2023-05-17T19:36:46.088Z,13.40
2023-05-17T19:39:14.064Z,13.42
2023-05-17T19:41:40.696Z,13.22
2023-05-17T19:44:07.338Z,13.16
2023-05-17T19:46:34.177Z,13.05
2023-05-17T19:49:00.991Z,12.97
2023-05-17T19:51:27.674Z,12.90
2023-05-17T19:53:54.579Z,12.77
2023-05-17T19:56:24.187Z,12.70
2023-05-17T19:58:51.628Z,12.74
2023-05-17T20:01:18.267Z,12.63
2023-05-17T20:03:45.088Z,12.51
2023-05-17T20:06:11.715Z,12.43
2023-05-17T20:08:38.336Z,12.49
2023-05-17T20:11:05.838Z,12.42
2023-05-17T20:13:34.141Z,12.31
2023-05-17T20:16:00.840Z,12.27
2023-05-17T20:18:27.455Z,12.19
2023-05-17T20:20:54.119Z,12.17
2023-05-17T20:23:20.747Z,12.10
2023-05-17T20:25:47.673Z,12.06
2023-05-17T20:28:14.274Z,12.13
2023-05-17T20:30:44.730Z,12.12
2023-05-17T20:33:11.571Z,12.01
2023-05-17T20:35:38.269Z,12.05
2023-05-17T20:38:04.923Z,11.96
2023-05-17T20:40:31.850Z,11.93
2023-05-17T20:42:58.789Z,11.95
2023-05-17T20:45:25.384Z,11.95
2023-05-17T20:47:53.919Z,11.86
2023-05-17T20:50:21.772Z,11.82
2023-05-17T20:52:48.520Z,11.80
2023-05-17T20:55:15.154Z,11.78
2023-05-17T20:57:41.697Z,11.77
2023-05-17T21:00:09.047Z,11.70
2023-05-17T21:02:37.555Z,11.67
2023-05-17T21:05:05.794Z,11.70
2023-05-17T21:07:32.399Z,11.66
2023-05-17T21:09:59.083Z,11.65
2023-05-17T21:12:25.807Z,11.60
2023-05-17T21:15:04.329Z,11.47
2023-05-17T21:17:38.947Z,11.47
2023-05-17T21:20:08.229Z,11.42
2023-05-17T21:22:34.856Z,11.35
2023-05-17T21:25:01.545Z,11.33
2023-05-17T21:27:28.195Z,11.35
2023-05-17T21:29:55.130Z,11.21
2023-05-17T21:32:21.943Z,11.22
2023-05-17T21:34:48.534Z,11.23
2023-05-17T21:37:16.547Z,11.26
2023-05-17T21:39:43.397Z,11.25
2023-05-17T21:42:10.089Z,11.22
2023-05-17T21:44:36.746Z,11.06
2023-05-17T21:47:03.666Z,11.10
2023-05-17T21:49:30.343Z,11.00
2023-05-17T21:51:57.091Z,11.02
2023-05-17T21:54:25.134Z,11.01
2023-05-17T21:56:51.794Z,10.97
2023-05-17T21:59:18.397Z,10.97
2023-05-17T22:01:45.114Z,10.91
2023-05-17T22:04:11.722Z,10.97
2023-05-17T22:06:38.356Z,10.84
2023-05-17T22:09:04.997Z,10.86
2023-05-17T22:11:33.017Z,10.74
2023-05-17T22:13:59.662Z,10.73
2023-05-17T22:16:26.348Z,10.58
2023-05-17T22:18:53.139Z,10.58
2023-05-17T22:21:19.826Z,10.50
2023-05-17T22:23:46.497Z,10.53
2023-05-17T22:26:13.309Z,10.39
2023-05-17T22:28:41.253Z,10.30
2023-05-17T22:31:07.941Z,10.25
2023-05-17T22:33:34.666Z,10.22
2023-05-17T22:36:01.705Z,10.21
2023-05-17T22:38:28.370Z,10.18
2023-05-17T22:40:54.991Z,10.08
2023-05-17T22:43:21.852Z,10.05
2023-05-17T22:45:50.398Z,10.01
2023-05-17T22:48:17.077Z,10.04
2023-05-17T22:50:43.707Z,10.01
2023-05-17T22:53:10.391Z,9.98
2023-05-17T22:55:37.107Z,9.95
2023-05-17T22:58:03.807Z,9.93
2023-05-17T23:00:30.383Z,9.86
2023-05-17T23:02:58.434Z,9.90
2023-05-17T23:05:25.118Z,9.86
2023-05-17T23:07:51.767Z,9.87
2023-05-17T23:10:18.370Z,9.83
2023-05-17T23:12:45.043Z,9.77
2023-05-17T23:15:12.003Z,9.71
2023-05-17T23:17:38.672Z,9.74
2023-05-17T23:20:08.347Z,9.74
2023-05-17T23:22:35.007Z,9.79
2023-05-17T23:25:02.022Z,9.69
2023-05-17T23:27:29.126Z,9.61
2023-05-17T23:29:55.789Z,9.61
2023-05-17T23:32:22.871Z,9.53
2023-05-17T23:34:49.768Z,9.53
2023-05-17T23:37:17.683Z,9.43
2023-05-17T23:39:44.266Z,9.40
2023-05-17T23:42:10.880Z,9.34
2023-05-17T23:44:37.548Z,9.35
2023-05-17T23:47:04.672Z,9.24
2023-05-17T23:49:31.326Z,9.29
2023-05-17T23:51:57.996Z,9.24
2023-05-17T23:54:25.948Z,9.28
2023-05-17T23:56:52.532Z,9.13
2023-05-17T23:59:19.456Z,9.08
